Time;durP1;ratioP1;P1;durP2;ratioP2;P2;SDS_P1;SDS_P2;PMS_P1;PMS_P2;Temp;Humidity;BMP_temperature;BMP_pressure;BME280_temperature;BME280_humidity;BME280_pressure;Samples;Min_cycle;Max_cycle;Signal;HPM_P1;HPM_P2
2022/02/20 00:00:25;;;;;;;;;;;;;;;2.16;100.00;95733.13;1030987;28;19914;-71
2022/02/20 00:00:56;;;;;;;;;;;;;;;2.15;100.00;95738.50;1035402;28;19924;-71
2022/02/20 00:01:26;;;;;;;;;;;;;;;2.15;100.00;95731.53;1038973;28;19974;-70
2022/02/20 00:01:56;;;;;;;;;;;;;;;2.13;100.00;95731.72;1039177;28;19920;-71
2022/02/20 00:02:27;;;;;;;;;;;;;;;2.13;100.00;95734.31;1039506;28;19913;-71
2022/02/20 00:02:57;;;;;;;;;;;;;;;2.15;100.00;95734.13;1039088;28;20045;-72
2022/02/20 00:03:28;;;;;;;;;;;;;;;2.15;100.00;95728.13;1037906;28;20367;-71
2022/02/20 00:04:02;;;;;;;;;;;;;;;2.15;100.00;95726.38;1043292;28;19980;-71
2022/02/20 00:04:36;;;;;;;;;;;;;;;2.22;100.00;95721.16;1047320;28;20028;-71
2022/02/20 00:05:06;;;;;;;;;;;;;;;2.24;100.00;95732.06;1040761;28;19966;-71
2022/02/20 00:05:39;;;;;;;;;;;;;;;2.24;100.00;95730.25;1038985;28;20533;-71
2022/02/20 00:06:10;;;;;;;;;;;;;;;2.22;100.00;95724.53;1031245;28;20014;-72
2022/02/20 00:06:40;;;;;;;;;;;;;;;2.22;100.00;95729.69;1027569;28;19949;-71
2022/02/20 00:07:10;;;;;;;;;;;;;;;2.24;100.00;95732.06;1034969;28;20064;-71
2022/02/20 00:07:41;;;;;;;;;;;;;;;2.25;100.00;95738.84;1035295;28;19918;-72
2022/02/20 00:08:14;;;;;;;;;;;;;;;2.26;100.00;95724.88;1038958;28;20735;-72
2022/02/20 00:08:45;;;;;;;;;;;;;;;2.23;100.00;95726.09;1039247;28;20028;-71
2022/02/20 00:09:18;;;;;;;;;;;;;;;2.22;100.00;95734.09;1039050;28;20408;-71
2022/02/20 00:09:48;;;;;;;;;;;;;;;2.21;100.00;95722.13;1034329;28;19941;-71
2022/02/20 00:10:19;;;;;;;;;;;;;;;2.22;100.00;95721.16;1038418;28;19914;-71
2022/02/20 00:10:49;;;;;;;;;;;;;;;2.27;100.00;95731.66;1035050;28;19964;-71
2022/02/20 00:11:19;;;;;;;;;;;;;;;2.24;100.00;95729.47;1034843;28;20315;-72
2022/02/20 00:11:50;;;;;;;;;;;;;;;1.99;100.00;95699.19;1032722;28;19921;-72
2022/02/20 00:12:20;;;;;;;;;;;;;;;2.19;100.00;95734.50;1030940;28;19914;-72
2022/02/20 00:12:50;;;;;;;;;;;;;;;2.19;100.00;95737.09;1034865;28;19914;-71
2022/02/20 00:13:20;;;;;;;;;;;;;;;2.25;100.00;95726.69;1034532;28;19909;-71
2022/02/20 00:13:52;;;;;;;;;;;;;;;2.30;100.00;95731.22;1030827;28;19920;-71
2022/02/20 00:14:23;;;;;;;;;;;;;;;2.28;100.00;95730.63;1035181;28;19913;-72
2022/02/20 00:14:53;;;;;;;;;;;;;;;2.27;100.00;95723.88;1035122;28;19910;-71
2022/02/20 00:15:24;;;;;;;;;;;;;;;2.27;100.00;95721.28;1037665;28;19947;-71
2022/02/20 00:15:54;;;;;;;;;;;;;;;2.26;100.00;95727.47;1039326;28;19909;-72
2022/02/20 00:16:24;;;;;;;;;;;;;;;2.27;100.00;95716.13;1038986;28;19913;-71
2022/02/20 00:16:54;;;;;;;;;;;;;;;2.29;100.00;95729.66;1030696;28;20375;-71
2022/02/20 00:17:25;;;;;;;;;;;;;;;2.35;100.00;95732.19;1031253;28;19945;-71
2022/02/20 00:17:57;;;;;;;;;;;;;;;2.37;100.00;95719.03;1030805;28;19910;-71
2022/02/20 00:18:30;;;;;;;;;;;;;;;2.36;100.00;95726.00;1032049;28;20525;-71
2022/02/20 00:19:01;;;;;;;;;;;;;;;2.36;100.00;95720.03;1038220;28;19913;-71
2022/02/20 00:19:31;;;;;;;;;;;;;;;2.36;100.00;95730.38;1030373;28;19910;-71
2022/02/20 00:20:02;;;;;;;;;;;;;;;2.36;100.00;95731.19;1031537;28;20414;-71
2022/02/20 00:20:32;;;;;;;;;;;;;;;2.38;100.00;95733.53;1038190;28;19977;-72
2022/02/20 00:21:02;;;;;;;;;;;;;;;2.38;100.00;95727.56;1043163;28;19912;-71
2022/02/20 00:21:33;;;;;;;;;;;;;;;2.36;100.00;95722.63;1043532;28;19913;-71
2022/02/20 00:22:03;;;;;;;;;;;;;;;2.35;100.00;95727.00;1042827;28;19913;-71
2022/02/20 00:22:34;;;;;;;;;;;;;;;2.37;100.00;95737.16;1043534;28;19909;-72
2022/02/20 00:23:04;;;;;;;;;;;;;;;2.40;100.00;95723.78;1039010;28;19909;-70
2022/02/20 00:23:35;;;;;;;;;;;;;;;2.43;100.00;95733.72;1038468;28;20345;-71
2022/02/20 00:24:05;;;;;;;;;;;;;;;2.47;100.00;95723.72;1036152;28;19913;-71
2022/02/20 00:24:35;;;;;;;;;;;;;;;2.47;100.00;95731.50;1039038;28;19928;-72
2022/02/20 00:25:06;;;;;;;;;;;;;;;2.44;100.00;95730.13;1038945;28;20517;-72
2022/02/20 00:25:37;;;;;;;;;;;;;;;2.48;100.00;95735.66;1043382;28;19964;-72
2022/02/20 00:26:07;;;;;;;;;;;;;;;2.49;100.00;95719.16;1038774;28;19913;-72
2022/02/20 00:26:38;;;;;;;;;;;;;;;2.51;100.00;95736.03;1035348;28;19906;-71
2022/02/20 00:27:08;;;;;;;;;;;;;;;2.50;100.00;95726.69;1034759;28;19928;-71
2022/02/20 00:27:38;;;;;;;;;;;;;;;2.49;100.00;95735.47;1031041;28;20368;-71
2022/02/20 00:28:09;;;;;;;;;;;;;;;2.49;100.00;95732.09;1031096;28;19937;-72
2022/02/20 00:28:39;;;;;;;;;;;;;;;2.51;100.00;95737.84;1026689;28;19910;-71
2022/02/20 00:29:09;;;;;;;;;;;;;;;2.51;100.00;95738.63;1026784;28;19933;-71
2022/02/20 00:29:43;;;;;;;;;;;;;;;2.51;100.00;95737.84;1026687;28;19911;-69
2022/02/20 00:30:13;;;;;;;;;;;;;;;2.51;100.00;95736.03;1031135;28;19914;-72
2022/02/20 00:30:43;;;;;;;;;;;;;;;2.55;100.00;95744.19;1035662;28;19945;-72
2022/02/20 00:31:14;;;;;;;;;;;;;;;2.60;100.00;95742.53;1039554;28;20136;-71
2022/02/20 00:31:44;;;;;;;;;;;;;;;2.62;100.00;95738.97;1035123;28;19914;-71
2022/02/20 00:32:15;;;;;;;;;;;;;;;2.65;100.00;95738.50;1040515;28;19912;-72
2022/02/20 00:32:45;;;;;;;;;;;;;;;2.66;100.00;95740.91;1038992;28;19913;-72
2022/02/20 00:33:15;;;;;;;;;;;;;;;2.66;100.00;95745.31;1039051;28;19925;-72
2022/02/20 00:33:45;;;;;;;;;;;;;;;2.66;100.00;95740.13;1039101;28;19910;-72
2022/02/20 00:34:16;;;;;;;;;;;;;;;2.70;100.00;95734.28;1043050;28;19913;-72
2022/02/20 00:34:49;;;;;;;;;;;;;;;2.75;100.00;95744.00;1035517;28;19910;-72
2022/02/20 00:35:19;;;;;;;;;;;;;;;2.74;100.00;95727.69;1031043;28;19914;-71
2022/02/20 00:35:50;;;;;;;;;;;;;;;2.73;100.00;95746.81;1036488;28;19981;-71
2022/02/20 00:36:20;;;;;;;;;;;;;;;2.75;100.00;95692.19;1034314;28;19937;-71
2022/02/20 00:36:50;;;;;;;;;;;;;;;2.83;100.00;95746.34;1037777;28;19920;-70
2022/02/20 00:37:21;;;;;;;;;;;;;;;2.85;100.00;95739.16;1041136;28;19913;-71
2022/02/20 00:37:51;;;;;;;;;;;;;;;2.83;100.00;95744.53;1039282;28;19913;-72
2022/02/20 00:38:21;;;;;;;;;;;;;;;2.81;100.00;95743.16;1043057;28;20287;-70
2022/02/20 00:38:52;;;;;;;;;;;;;;;2.81;100.00;95740.56;1038696;28;19914;-70
2022/02/20 00:39:22;;;;;;;;;;;;;;;2.81;100.00;95748.34;1034495;28;19945;-71
2022/02/20 00:39:52;;;;;;;;;;;;;;;2.77;100.00;95742.00;1026162;28;20354;-71
2022/02/20 00:40:23;;;;;;;;;;;;;;;2.77;100.00;95744.59;1026938;28;19964;-70
2022/02/20 00:40:53;;;;;;;;;;;;;;;2.80;100.00;95751.94;1033560;28;19910;-71
2022/02/20 00:41:24;;;;;;;;;;;;;;;2.81;100.00;95751.72;1034631;28;20418;-71
2022/02/20 00:41:54;;;;;;;;;;;;;;;2.83;100.00;95761.88;1039120;28;20241;-71
2022/02/20 00:42:24;;;;;;;;;;;;;;;2.81;100.00;95740.56;1036198;28;20390;-71
2022/02/20 00:42:55;;;;;;;;;;;;;;;2.84;100.00;95753.09;1038822;28;19913;-71
2022/02/20 00:43:25;;;;;;;;;;;;;;;2.84;100.00;95753.09;1039150;28;19996;-72
2022/02/20 00:43:56;;;;;;;;;;;;;;;2.85;100.00;95762.47;1034792;28;19909;-71
2022/02/20 00:44:26;;;;;;;;;;;;;;;2.87;100.00;95763.03;1034774;28;20367;-70
2022/02/20 00:44:56;;;;;;;;;;;;;;;2.88;100.00;95758.66;1030751;28;20025;-70
2022/02/20 00:45:27;;;;;;;;;;;;;;;2.87;100.00;95752.69;1026683;28;20534;-70
2022/02/20 00:45:57;;;;;;;;;;;;;;;2.88;100.00;95754.25;1033724;28;20759;-71
2022/02/20 00:46:27;;;;;;;;;;;;;;;2.88;100.00;95766.41;1034748;28;19913;-71
2022/02/20 00:46:58;;;;;;;;;;;;;;;2.87;100.00;95757.06;1030612;28;19914;-71
2022/02/20 00:47:28;;;;;;;;;;;;;;;2.84;100.00;95753.88;1029253;28;19910;-71
2022/02/20 00:47:58;;;;;;;;;;;;;;;2.85;100.00;95757.31;1032064;28;19965;-71
2022/02/20 00:48:29;;;;;;;;;;;;;;;2.89;100.00;95761.03;1034938;28;19920;-71
2022/02/20 00:48:59;;;;;;;;;;;;;;;2.88;100.00;95767.22;1030581;28;19905;-71
2022/02/20 00:49:29;;;;;;;;;;;;;;;2.88;100.00;95759.44;1025997;28;19961;-70
2022/02/20 00:50:03;;;;;;;;;;;;;;;2.87;100.00;95764.84;1031005;28;19914;-71
2022/02/20 00:50:33;;;;;;;;;;;;;;;2.88;100.00;95774.19;1026648;28;20536;-71
2022/02/20 00:51:04;;;;;;;;;;;;;;;2.89;100.00;95778.41;1025196;28;19917;-71
2022/02/20 00:51:35;;;;;;;;;;;;;;;2.93;100.00;95774.38;1035960;28;20009;-71
2022/02/20 00:52:05;;;;;;;;;;;;;;;2.89;100.00;95771.41;1030989;28;19969;-71
2022/02/20 00:52:35;;;;;;;;;;;;;;;2.89;100.00;95766.22;1038357;28;20493;-71
2022/02/20 00:53:06;;;;;;;;;;;;;;;2.86;100.00;95765.84;1042736;28;20042;-72
2022/02/20 00:53:36;;;;;;;;;;;;;;;2.86;100.00;95764.06;1038758;28;19921;-71
2022/02/20 00:54:09;;;;;;;;;;;;;;;2.86;100.00;95777.00;1030989;28;19914;-71
2022/02/20 00:54:39;;;;;;;;;;;;;;;2.90;100.00;95772.19;1026917;28;20570;-71
2022/02/20 00:55:10;;;;;;;;;;;;;;;2.99;100.00;95765.75;1030813;28;19961;-70
2022/02/20 00:55:40;;;;;;;;;;;;;;;2.96;100.00;95766.16;1031249;28;20004;-71
2022/02/20 00:56:10;;;;;;;;;;;;;;;2.96;100.00;95772.13;1034707;28;19921;-71
2022/02/20 00:56:40;;;;;;;;;;;;;;;2.93;100.00;95785.50;1042998;28;19920;-70
2022/02/20 00:57:11;;;;;;;;;;;;;;;2.94;100.00;95768.94;1042919;28;20325;-71
2022/02/20 00:57:41;;;;;;;;;;;;;;;2.97;100.00;95772.94;1042819;28;19966;-72
2022/02/20 00:58:11;;;;;;;;;;;;;;;2.95;100.00;95773.16;1041640;28;19917;-71
2022/02/20 00:58:42;;;;;;;;;;;;;;;2.94;100.00;95778.53;1034462;28;19913;-72
2022/02/20 00:59:12;;;;;;;;;;;;;;;2.91;100.00;95777.16;1030612;28;19906;-72
2022/02/20 00:59:42;;;;;;;;;;;;;;;2.89;100.00;95761.03;1033919;28;19921;-71
2022/02/20 01:00:13;;;;;;;;;;;;;;;2.89;100.00;95755.06;1030650;28;20367;-72
2022/02/20 01:00:43;;;;;;;;;;;;;;;2.91;100.00;95769.38;1026868;28;19906;-72
2022/02/20 01:01:13;;;;;;;;;;;;;;;2.96;100.00;95763.56;1030688;28;20060;-71
2022/02/20 01:01:46;;;;;;;;;;;;;;;2.99;100.00;95778.69;1034471;28;19922;-71
2022/02/20 01:02:17;;;;;;;;;;;;;;;3.03;100.00;95778.03;1035774;28;19917;-71
2022/02/20 01:02:47;;;;;;;;;;;;;;;3.00;100.00;95781.06;1038704;28;19913;-71
2022/02/20 01:03:17;;;;;;;;;;;;;;;3.03;100.00;95780.63;1036198;28;19929;-70
2022/02/20 01:03:47;;;;;;;;;;;;;;;3.03;100.00;95775.47;1039054;28;19913;-71
2022/02/20 01:04:18;;;;;;;;;;;;;;;3.03;100.00;95787.63;1034803;28;19921;-70
2022/02/20 01:04:48;;;;;;;;;;;;;;;3.09;100.00;95778.22;1034926;28;19914;-71
2022/02/20 01:05:18;;;;;;;;;;;;;;;3.07;100.00;95779.19;1038919;28;19913;-70
2022/02/20 01:05:49;;;;;;;;;;;;;;;3.12;100.00;95785.53;1042641;28;19939;-70
2022/02/20 01:06:19;;;;;;;;;;;;;;;3.09;100.00;95780.81;1039092;28;19961;-69
2022/02/20 01:06:49;;;;;;;;;;;;;;;3.11;100.00;95787.34;1034703;28;20430;-70
2022/02/20 01:07:21;;;;;;;;;;;;;;;3.10;100.00;95784.97;1034818;28;19906;-69
2022/02/20 01:07:51;;;;;;;;;;;;;;;3.09;100.00;95778.22;1034994;28;19910;-71
2022/02/20 01:08:21;;;;;;;;;;;;;;;3.12;100.00;95785.53;1035967;28;19971;-70
2022/02/20 01:08:51;;;;;;;;;;;;;;;3.15;100.00;95774.75;1038871;28;19931;-71
2022/02/20 01:09:22;;;;;;;;;;;;;;;3.12;100.00;95785.53;1035038;28;20383;-71
2022/02/20 01:09:52;;;;;;;;;;;;;;;3.12;100.00;95775.97;1034058;28;20008;-71
2022/02/20 01:10:25;;;;;;;;;;;;;;;3.09;100.00;95778.22;1031260;28;19913;-72
2022/02/20 01:10:55;;;;;;;;;;;;;;;3.10;100.00;95772.81;1038966;28;19906;-72
2022/02/20 01:11:26;;;;;;;;;;;;;;;3.10;100.00;95772.00;1038804;28;20410;-72
2022/02/20 01:11:56;;;;;;;;;;;;;;;3.09;100.00;95783.41;1034896;28;19913;-72
2022/02/20 01:12:26;;;;;;;;;;;;;;;3.11;100.00;95794.31;1034745;28;20535;-71
2022/02/20 01:13:00;;;;;;;;;;;;;;;3.11;100.00;95769.19;1034844;28;19912;-71
2022/02/20 01:13:31;;;;;;;;;;;;;;;3.10;100.00;95772.81;1036316;28;20088;-70
2022/02/20 01:14:04;;;;;;;;;;;;;;;3.12;100.00;95767.38;1031092;28;19971;-71
2022/02/20 01:14:34;;;;;;;;;;;;;;;3.12;100.00;95757.84;1030688;28;19921;-71
2022/02/20 01:15:05;;;;;;;;;;;;;;;3.11;100.00;95756.22;1031204;28;19909;-71
2022/02/20 01:15:36;;;;;;;;;;;;;;;3.15;100.00;95767.75;1031626;28;19968;-71
2022/02/20 01:16:06;;;;;;;;;;;;;;;3.14;100.00;95765.38;1035130;28;19914;-71
2022/02/20 01:16:36;;;;;;;;;;;;;;;3.15;100.00;95759.19;1034617;28;20571;-71
2022/02/20 01:17:06;;;;;;;;;;;;;;;3.15;100.00;95754.00;1035220;28;19914;-72
2022/02/20 01:17:37;;;;;;;;;;;;;;;3.13;100.00;95758.63;1038942;28;19913;-72
2022/02/20 01:18:07;;;;;;;;;;;;;;;3.14;100.00;95763.59;1043034;28;19913;-71
2022/02/20 01:18:37;;;;;;;;;;;;;;;3.13;100.00;95769.78;1047619;28;19912;-70
2022/02/20 01:19:10;;;;;;;;;;;;;;;3.12;100.00;95754.44;1047337;28;20039;-71
2022/02/20 01:19:41;;;;;;;;;;;;;;;3.11;100.00;95758.81;1046669;28;19938;-70
2022/02/20 01:20:11;;;;;;;;;;;;;;;3.16;100.00;95761.56;1034964;28;20078;-70
2022/02/20 01:20:44;;;;;;;;;;;;;;;3.15;100.00;95769.56;1034514;28;19914;-71
2022/02/20 01:21:14;;;;;;;;;;;;;;;3.12;100.00;95767.38;1035130;28;19995;-70
2022/02/20 01:21:44;;;;;;;;;;;;;;;3.12;100.00;95764.78;1027645;28;19918;-71
2022/02/20 01:22:15;;;;;;;;;;;;;;;3.11;100.00;95758.03;1038675;28;20669;-70
2022/02/20 01:22:45;;;;;;;;;;;;;;;3.11;100.00;95761.41;1034997;28;19913;-71
2022/02/20 01:23:16;;;;;;;;;;;;;;;3.11;100.00;95773.59;1034328;28;19910;-71
2022/02/20 01:23:46;;;;;;;;;;;;;;;3.17;100.00;95757.97;1042657;28;19913;-71
2022/02/20 01:24:16;;;;;;;;;;;;;;;3.18;100.00;95764.72;1035012;28;19918;-70
2022/02/20 01:24:46;;;;;;;;;;;;;;;3.19;100.00;95766.34;1038537;28;19975;-70
2022/02/20 01:25:17;;;;;;;;;;;;;;;3.17;100.00;95763.16;1034692;28;19917;-70
2022/02/20 01:25:47;;;;;;;;;;;;;;;3.18;100.00;95763.94;1026634;28;19968;-71
2022/02/20 01:26:17;;;;;;;;;;;;;;;3.18;100.00;95767.31;1026824;28;19996;-71
2022/02/20 01:26:48;;;;;;;;;;;;;;;3.17;100.00;95770.16;1030623;28;20392;-71
2022/02/20 01:27:18;;;;;;;;;;;;;;;3.17;100.00;95752.00;1033698;28;19909;-71
2022/02/20 01:27:48;;;;;;;;;;;;;;;3.21;100.00;95766.09;1038755;28;19913;-70
2022/02/20 01:28:19;;;;;;;;;;;;;;;3.19;100.00;95765.53;1039202;28;19913;-70
2022/02/20 01:28:49;;;;;;;;;;;;;;;3.18;100.00;95763.94;1032049;28;19909;-70
2022/02/20 01:29:19;;;;;;;;;;;;;;;3.17;100.00;95757.97;1038774;28;20549;-70
2022/02/20 01:29:50;;;;;;;;;;;;;;;3.16;100.00;95765.97;1034230;28;19910;-70
2022/02/20 01:30:20;;;;;;;;;;;;;;;3.20;100.00;95757.53;1030694;28;20589;-70
2022/02/20 01:30:50;;;;;;;;;;;;;;;3.31;100.00;95763.81;1030735;28;19953;-71
2022/02/20 01:31:20;;;;;;;;;;;;;;;3.33;100.00;95776.56;1034701;28;19960;-71
2022/02/20 01:31:53;;;;;;;;;;;;;;;3.33;100.00;95777.34;1030470;28;20574;-70
2022/02/20 01:32:23;;;;;;;;;;;;;;;3.32;100.00;95775.78;1034142;28;20271;-71
2022/02/20 01:32:53;;;;;;;;;;;;;;;3.32;100.00;95775.78;1038568;28;19955;-72
2022/02/20 01:33:24;;;;;;;;;;;;;;;3.34;100.00;95778.94;1027099;28;20414;-71
2022/02/20 01:33:54;;;;;;;;;;;;;;;3.30;100.00;95765.63;1034710;28;19921;-71
2022/02/20 01:34:24;;;;;;;;;;;;;;;3.30;100.00;95770.78;1030518;28;20323;-72
2022/02/20 01:34:55;;;;;;;;;;;;;;;3.31;100.00;95774.19;1026698;28;19915;-71
2022/02/20 01:35:25;;;;;;;;;;;;;;;3.31;100.00;95774.97;1026565;28;19914;-71
2022/02/20 01:35:59;;;;;;;;;;;;;;;3.32;100.00;95775.78;1030604;28;20005;-71
2022/02/20 01:36:29;;;;;;;;;;;;;;;3.31;100.00;95771.59;1030845;28;19968;-71
2022/02/20 01:37:00;;;;;;;;;;;;;;;3.32;100.00;95786.16;1031106;28;20356;-70
2022/02/20 01:37:30;;;;;;;;;;;;;;;3.33;100.00;95782.56;1034197;28;19909;-71
2022/02/20 01:38:00;;;;;;;;;;;;;;;3.29;100.00;95786.59;1035087;28;19913;-70
2022/02/20 01:38:31;;;;;;;;;;;;;;;3.31;100.00;95776.78;1034612;28;19909;-71
2022/02/20 01:39:02;;;;;;;;;;;;;;;3.28;100.00;95782.38;1030590;28;19997;-70
2022/02/20 01:39:35;;;;;;;;;;;;;;;3.29;100.00;95774.41;1029848;28;19965;-71
2022/02/20 01:40:06;;;;;;;;;;;;;;;3.26;100.00;95782.63;1026548;28;19973;-71
2022/02/20 01:40:36;;;;;;;;;;;;;;;3.21;100.00;95774.69;1023789;28;20518;-70
2022/02/20 01:41:06;;;;;;;;;;;;;;;3.20;100.00;95778.28;1022169;28;19922;-70
2022/02/20 01:41:36;;;;;;;;;;;;;;;3.23;100.00;95777.06;1033897;28;20398;-71
2022/02/20 01:42:07;;;;;;;;;;;;;;;3.21;100.00;95774.69;1043215;28;19921;-71
2022/02/20 01:42:37;;;;;;;;;;;;;;;3.18;100.00;95808.03;1042329;28;19917;-70
2022/02/20 01:43:10;;;;;;;;;;;;;;;3.20;100.00;95774.91;1042920;28;19920;-71
2022/02/20 01:43:41;;;;;;;;;;;;;;;3.19;100.00;95784.47;1037382;28;19917;-71
2022/02/20 01:44:11;;;;;;;;;;;;;;;3.17;100.00;95768.34;1038465;28;19917;-70
2022/02/20 01:44:41;;;;;;;;;;;;;;;3.15;100.00;95788.50;1038682;28;20406;-71
2022/02/20 01:45:13;;;;;;;;;;;;;;;3.13;100.00;95781.97;1030498;28;20731;-70
2022/02/20 01:45:43;;;;;;;;;;;;;;;3.10;100.00;95790.94;1027652;28;19928;-70
2022/02/20 01:46:13;;;;;;;;;;;;;;;3.08;100.00;95785.16;1034884;28;19929;-69
2022/02/20 01:46:45;;;;;;;;;;;;;;;3.08;100.00;95787.75;1039202;28;19913;-71
2022/02/20 01:47:15;;;;;;;;;;;;;;;3.05;100.00;95790.78;1042806;28;20378;-70
2022/02/20 01:47:45;;;;;;;;;;;;;;;3.04;100.00;95790.00;1033996;28;19918;-71
2022/02/20 01:48:16;;;;;;;;;;;;;;;3.05;100.00;95796.78;1030738;28;20308;-71
2022/02/20 01:48:46;;;;;;;;;;;;;;;3.07;100.00;95807.72;1035135;28;19917;-70
2022/02/20 01:49:17;;;;;;;;;;;;;;;3.05;100.00;95776.03;1034606;28;19943;-70
2022/02/20 01:49:49;;;;;;;;;;;;;;;3.02;100.00;95786.84;1033764;28;19929;-71
2022/02/20 01:50:20;;;;;;;;;;;;;;;2.98;100.00;95785.66;1030700;28;19924;-68
2022/02/20 01:50:50;;;;;;;;;;;;;;;2.98;100.00;95790.06;1026926;28;20368;-70
2022/02/20 01:51:20;;;;;;;;;;;;;;;2.97;100.00;95789.25;1030217;28;20514;-71
2022/02/20 01:51:51;;;;;;;;;;;;;;;2.92;100.00;95799.50;1030425;28;19969;-71
2022/02/20 01:52:22;;;;;;;;;;;;;;;2.93;100.00;95777.75;1038704;28;19921;-71
2022/02/20 01:52:52;;;;;;;;;;;;;;;2.86;100.00;95802.13;1034877;28;20445;-68
2022/02/20 01:53:23;;;;;;;;;;;;;;;2.82;100.00;95788.81;1030883;28;19932;-71
2022/02/20 01:53:54;;;;;;;;;;;;;;;2.82;100.00;95788.81;1027672;28;19914;-68
2022/02/20 01:54:24;;;;;;;;;;;;;;;2.80;100.00;95794.19;1030815;28;20539;-72
2022/02/20 01:54:57;;;;;;;;;;;;;;;2.80;100.00;95796.78;1031352;28;19929;-70
2022/02/20 01:55:27;;;;;;;;;;;;;;;2.77;100.00;95799.00;1036298;28;19914;-71
2022/02/20 01:55:58;;;;;;;;;;;;;;;2.75;100.00;95778.50;1035622;28;19918;-71
2022/02/20 01:56:28;;;;;;;;;;;;;;;2.74;100.00;95783.88;1038989;28;19917;-71
2022/02/20 01:56:58;;;;;;;;;;;;;;;2.71;100.00;95785.09;1035349;28;19917;-71
2022/02/20 01:57:31;;;;;;;;;;;;;;;2.68;100.00;95792.50;1031224;28;19922;-70
2022/02/20 01:58:02;;;;;;;;;;;;;;;2.67;100.00;95783.16;1031052;28;20395;-69
2022/02/20 01:58:32;;;;;;;;;;;;;;;2.65;100.00;95790.31;1032284;28;20077;-69
2022/02/20 01:59:03;;;;;;;;;;;;;;;2.64;100.00;95793.94;1032066;28;19941;-70
2022/02/20 01:59:33;;;;;;;;;;;;;;;2.65;100.00;95796.31;1035220;28;19921;-69
2022/02/20 02:00:07;;;;;;;;;;;;;;;2.65;100.00;95790.31;1027120;28;19918;-70
2022/02/20 02:00:37;;;;;;;;;;;;;;;2.63;100.00;95790.53;1031847;28;19928;-71
2022/02/20 02:01:08;;;;;;;;;;;;;;;2.63;100.00;95782.00;1035834;28;19928;-71
2022/02/20 02:01:38;;;;;;;;;;;;;;;2.62;100.00;95790.78;1036231;28;20000;-71
2022/02/20 02:02:08;;;;;;;;;;;;;;;2.60;100.00;95776.22;1039474;28;19909;-71
2022/02/20 02:02:39;;;;;;;;;;;;;;;2.60;100.00;95783.97;1035712;28;20318;-71
2022/02/20 02:03:09;;;;;;;;;;;;;;;2.62;100.00;95790.78;1031277;28;20004;-71
2022/02/20 02:03:39;;;;;;;;;;;;;;;2.59;100.00;95781.63;1035753;28;19921;-71
2022/02/20 02:04:10;;;;;;;;;;;;;;;2.56;100.00;95772.47;1035316;28;19921;-71
2022/02/20 02:04:40;;;;;;;;;;;;;;;2.54;100.00;95786.63;1031361;28;19921;-71
2022/02/20 02:05:10;;;;;;;;;;;;;;;2.51;100.00;95776.69;1027651;28;19974;-71
2022/02/20 02:05:41;;;;;;;;;;;;;;;2.52;100.00;95770.53;1031361;28;20025;-71
2022/02/20 02:06:11;;;;;;;;;;;;;;;2.52;100.00;95776.47;1035336;28;20441;-71
2022/02/20 02:06:42;;;;;;;;;;;;;;;2.50;100.00;95783.66;1035440;28;20326;-71
2022/02/20 02:07:12;;;;;;;;;;;;;;;2.51;100.00;95784.44;1039591;28;19921;-68
2022/02/20 02:07:42;;;;;;;;;;;;;;;2.47;100.00;95773.72;1035832;28;20334;-69
2022/02/20 02:08:14;;;;;;;;;;;;;;;2.47;100.00;95780.69;1039255;28;20462;-69
2022/02/20 02:08:45;;;;;;;;;;;;;;;2.46;100.00;95773.94;1043731;28;19932;-69
2022/02/20 02:09:27;;;;;;;;;;;;;;;2.44;100.00;95768.97;1044072;28;19913;-72
2022/02/20 02:09:58;;;;;;;;;;;;;;;2.46;100.00;95772.16;1039112;28;19921;-70
2022/02/20 02:10:28;;;;;;;;;;;;;;;2.45;100.00;95780.94;1035610;28;20004;-71
2022/02/20 02:10:59;;;;;;;;;;;;;;;2.44;100.00;95781.91;1023371;29;19907;-70
2022/02/20 02:11:29;;;;;;;;;;;;;;;2.44;100.00;95776.72;1023935;28;19941;-70
2022/02/20 02:11:59;;;;;;;;;;;;;;;2.42;100.00;95781.34;1031556;28;19921;-70
2022/02/20 02:12:30;;;;;;;;;;;;;;;2.41;100.00;95782.31;1031338;28;20346;-70
2022/02/20 02:13:00;;;;;;;;;;;;;;;2.39;100.00;95768.03;1039528;28;20003;-70
2022/02/20 02:13:30;;;;;;;;;;;;;;;2.40;100.00;95777.38;1031728;28;19928;-71
2022/02/20 02:14:00;;;;;;;;;;;;;;;2.38;100.00;95769.78;1031476;28;19924;-70
2022/02/20 02:14:31;;;;;;;;;;;;;;;2.36;100.00;95767.44;1035589;28;20397;-71
2022/02/20 02:15:02;;;;;;;;;;;;;;;2.34;100.00;95764.25;1031207;28;19925;-71
2022/02/20 02:15:33;;;;;;;;;;;;;;;2.34;100.00;95763.47;1039506;28;20673;-69
2022/02/20 02:16:03;;;;;;;;;;;;;;;2.32;100.00;95755.91;1035831;28;19921;-71
2022/02/20 02:16:33;;;;;;;;;;;;;;;2.31;100.00;95763.88;1035397;28;19922;-70
2022/02/20 02:17:03;;;;;;;;;;;;;;;2.28;100.00;95764.28;1038205;28;19923;-70
2022/02/20 02:17:34;;;;;;;;;;;;;;;2.27;100.00;95788.59;1035667;28;20390;-70
2022/02/20 02:18:04;;;;;;;;;;;;;;;2.27;100.00;95773.06;1035375;28;19995;-70
2022/02/20 02:18:36;;;;;;;;;;;;;;;2.25;100.00;95782.84;1035471;28;19925;-70
2022/02/20 02:19:09;;;;;;;;;;;;;;;2.24;100.00;95776.06;1036073;28;19914;-71
2022/02/20 02:19:40;;;;;;;;;;;;;;;2.03;100.00;95756.50;1035306;28;19928;-70
2022/02/20 02:20:10;;;;;;;;;;;;;;;2.24;100.00;95773.47;1039619;28;19928;-71
2022/02/20 02:20:40;;;;;;;;;;;;;;;2.24;100.00;95763.13;1036187;28;19917;-71
2022/02/20 02:21:11;;;;;;;;;;;;;;;2.23;100.00;95780.47;1036547;28;19962;-72
2022/02/20 02:21:41;;;;;;;;;;;;;;;2.22;100.00;95770.31;1036048;28;19918;-72
2022/02/20 02:22:11;;;;;;;;;;;;;;;2.22;100.00;95770.31;1039809;28;19969;-71
2022/02/20 02:22:41;;;;;;;;;;;;;;;2.21;100.00;95774.69;1043893;28;19960;-72
2022/02/20 02:23:19;;;;;;;;;;;;;;;2.25;100.00;95767.31;1047951;28;19901;-70
2022/02/20 02:23:49;;;;;;;;;;;;;;;2.29;100.00;95784.00;1046568;28;19948;-70
2022/02/20 02:24:19;;;;;;;;;;;;;;;2.31;100.00;95767.28;1041063;28;19919;-71
2022/02/20 02:24:50;;;;;;;;;;;;;;;2.26;100.00;95764.50;1035391;28;19941;-71
2022/02/20 02:25:20;;;;;;;;;;;;;;;2.26;100.00;95776.66;1031175;28;20000;-70
2022/02/20 02:25:51;;;;;;;;;;;;;;;2.23;100.00;95777.88;1027826;28;19918;-70
2022/02/20 02:26:21;;;;;;;;;;;;;;;2.23;100.00;95771.91;1036341;28;20318;-71
2022/02/20 02:26:51;;;;;;;;;;;;;;;2.22;100.00;95781.47;1035785;28;19910;-71
2022/02/20 02:27:24;;;;;;;;;;;;;;;2.22;100.00;95775.50;1031071;28;19918;-72
2022/02/20 02:27:55;;;;;;;;;;;;;;;2.22;100.00;95783.28;1031885;28;19949;-72
2022/02/20 02:28:28;;;;;;;;;;;;;;;2.23;100.00;95788.22;1026737;28;19922;-70
2022/02/20 02:28:58;;;;;;;;;;;;;;;2.22;100.00;95783.28;1033003;28;20064;-71
2022/02/20 02:29:28;;;;;;;;;;;;;;;2.21;100.00;95784.25;1031911;28;19914;-70
2022/02/20 02:30:00;;;;;;;;;;;;;;;2.19;100.00;95794.81;1031989;28;20343;-71
2022/02/20 02:30:31;;;;;;;;;;;;;;;2.21;100.00;95784.25;1031234;28;19987;-70
2022/02/20 02:31:04;;;;;;;;;;;;;;;2.20;100.00;95786.06;1032616;28;19917;-71
2022/02/20 02:31:34;;;;;;;;;;;;;;;2.18;100.00;95777.72;1039599;28;19932;-71
2022/02/20 02:32:05;;;;;;;;;;;;;;;2.15;100.00;95782.50;1041886;28;20370;-69
2022/02/20 02:32:38;;;;;;;;;;;;;;;2.14;100.00;95794.63;1044500;28;19916;-70
2022/02/20 02:33:08;;;;;;;;;;;;;;;2.16;100.00;95789.28;1043628;28;19921;-71
2022/02/20 02:33:38;;;;;;;;;;;;;;;2.15;100.00;95779.91;1037560;28;19913;-71
2022/02/20 02:34:08;;;;;;;;;;;;;;;2.13;100.00;95783.50;1035779;28;20530;-71
2022/02/20 02:34:41;;;;;;;;;;;;;;;2.13;100.00;95786.09;1035784;28;20011;-71
2022/02/20 02:35:12;;;;;;;;;;;;;;;2.13;100.00;95793.84;1035908;28;19917;-70
2022/02/20 02:35:45;;;;;;;;;;;;;;;2.14;100.00;95794.63;1036729;28;19917;-69
2022/02/20 02:36:15;;;;;;;;;;;;;;;2.15;100.00;95774.72;1031962;28;19940;-71
2022/02/20 02:36:46;;;;;;;;;;;;;;;2.17;100.00;95793.44;1035916;28;19906;-71
2022/02/20 02:37:16;;;;;;;;;;;;;;;2.15;100.00;95788.47;1035660;28;19921;-71
2022/02/20 02:37:47;;;;;;;;;;;;;;;2.16;100.00;95791.88;1036045;28;19952;-71
2022/02/20 02:38:17;;;;;;;;;;;;;;;2.13;100.00;95788.69;1035443;28;19932;-72
2022/02/20 02:38:47;;;;;;;;;;;;;;;2.12;100.00;95794.88;1035522;28;19925;-71
2022/02/20 02:39:18;;;;;;;;;;;;;;;2.12;100.00;95789.69;1035943;28;20394;-71
2022/02/20 02:39:48;;;;;;;;;;;;;;;2.15;100.00;95792.84;1034742;28;19918;-71
2022/02/20 02:40:19;;;;;;;;;;;;;;;2.15;100.00;95779.91;1035539;28;19917;-71